createdAt,value
2019-05-06T00:04:14.297Z,3.90
2019-05-06T00:09:23.893Z,4.04
2019-05-06T00:14:29.065Z,4.37
2019-05-06T00:19:36.733Z,4.06
2019-05-06T00:24:44.348Z,4.12
2019-05-06T00:29:51.997Z,4.23
2019-05-06T00:34:59.588Z,4.33
2019-05-06T00:40:07.216Z,4.68
2019-05-06T00:45:14.862Z,5.27
2019-05-06T00:50:23.890Z,4.96
2019-05-06T00:55:29.701Z,5.28
2019-05-06T01:00:37.358Z,5.68
2019-05-06T01:05:44.929Z,5.58
2019-05-06T01:10:54.495Z,5.69
2019-05-06T01:15:59.664Z,5.88
2019-05-06T01:21:07.289Z,5.81
2019-05-06T01:26:15.134Z,6.33
2019-05-06T01:31:22.107Z,6.50
2019-05-06T01:36:29.714Z,6.55
2019-05-06T01:41:37.329Z,6.41
2019-05-06T01:46:44.938Z,6.76
2019-05-06T01:51:54.519Z,6.73
2019-05-06T01:56:59.732Z,7.59
2019-05-06T02:02:07.413Z,6.93
2019-05-06T02:07:15.030Z,7.06
2019-05-06T02:12:24.584Z,6.82
2019-05-06T02:17:29.842Z,8.22
2019-05-06T02:22:37.537Z,8.67
2019-05-06T02:27:45.115Z,7.37
2019-05-06T02:32:55.399Z,7.89
2019-05-06T02:37:59.849Z,7.51
2019-05-06T02:43:07.513Z,7.41
2019-05-06T02:48:15.094Z,8.73
2019-05-06T02:53:23.604Z,8.02
2019-05-06T02:58:32.827Z,8.04
2019-05-06T03:03:37.054Z,8.63
2019-05-06T03:08:44.655Z,7.95
2019-05-06T03:13:53.728Z,8.68
2019-05-06T03:18:59.406Z,8.52
2019-05-06T03:24:07.358Z,8.52
2019-05-06T03:29:14.209Z,8.52
2019-05-06T03:34:43.074Z,9.85
2019-05-06T03:39:29.002Z,8.97
2019-05-06T03:44:36.638Z,8.92
2019-05-06T03:49:44.223Z,9.08
2019-05-06T03:54:53.620Z,9.37
2019-05-06T03:59:59.027Z,9.35
2019-05-06T04:05:06.704Z,9.39
2019-05-06T04:10:14.317Z,10.69
2019-05-06T04:15:23.005Z,10.16
2019-05-06T04:20:29.210Z,9.12
2019-05-06T04:25:36.888Z,8.58
2019-05-06T04:30:44.489Z,8.25
2019-05-06T04:35:54.138Z,8.36
2019-05-06T04:40:59.216Z,8.20
2019-05-06T04:46:06.905Z,8.52
2019-05-06T04:51:14.521Z,7.94
2019-05-06T04:56:23.669Z,7.99
2019-05-06T05:01:29.320Z,8.19
2019-05-06T05:06:36.925Z,7.93
2019-05-06T05:11:44.530Z,9.63
2019-05-06T05:16:52.830Z,9.49
2019-05-06T05:21:59.309Z,8.58
2019-05-06T05:27:06.990Z,8.42
2019-05-06T05:32:14.608Z,8.62
2019-05-06T05:37:22.767Z,8.22
2019-05-06T05:42:29.457Z,8.18
2019-05-06T05:47:37.131Z,8.33
2019-05-06T05:52:44.738Z,8.09
2019-05-06T05:57:52.413Z,7.97
2019-05-06T06:03:00.016Z,9.36
2019-05-06T06:08:07.649Z,8.27
2019-05-06T06:13:15.231Z,8.42
2019-05-06T06:18:22.875Z,7.81
2019-05-06T06:23:32.289Z,7.85
2019-05-06T06:28:37.635Z,7.92
2019-05-06T06:33:45.254Z,7.82
2019-05-06T06:38:52.931Z,8.58
2019-05-06T06:44:02.236Z,7.98
2019-05-06T06:49:07.746Z,8.19
2019-05-06T06:54:15.373Z,8.36
2019-05-06T06:59:22.997Z,8.95
2019-05-06T07:04:32.406Z,8.52
2019-05-06T07:09:37.785Z,8.12
2019-05-06T07:14:45.410Z,8.48
2019-05-06T07:19:53.058Z,7.99
2019-05-06T07:25:03.742Z,9.16
2019-05-06T07:30:07.889Z,8.25
2019-05-06T07:35:15.460Z,7.93
2019-05-06T07:40:23.087Z,9.40
2019-05-06T07:45:32.732Z,8.38
2019-05-06T07:50:37.843Z,9.38
2019-05-06T07:55:45.461Z,8.61
2019-05-06T08:00:53.136Z,8.67
2019-05-06T08:06:02.502Z,8.36
2019-05-06T08:11:07.904Z,8.24
2019-05-06T08:16:15.513Z,8.06
2019-05-06T08:21:23.205Z,8.44
2019-05-06T08:26:32.317Z,8.13
2019-05-06T08:31:38.013Z,8.27
2019-05-06T08:36:45.599Z,6.93
2019-05-06T08:41:53.260Z,7.73
2019-05-06T08:47:02.490Z,7.87
2019-05-06T08:52:08.029Z,9.10
2019-05-06T08:57:15.614Z,9.03
2019-05-06T09:02:23.224Z,9.85
2019-05-06T09:07:32.000Z,8.97
2019-05-06T09:12:37.973Z,8.73
2019-05-06T09:17:45.557Z,9.07
2019-05-06T09:22:53.190Z,8.37
2019-05-06T09:28:02.578Z,8.27
2019-05-06T09:33:07.981Z,8.14
2019-05-06T09:38:15.597Z,7.78
2019-05-06T09:43:23.239Z,8.00
2019-05-06T09:48:32.891Z,8.26
2019-05-06T09:53:38.018Z,8.02
2019-05-06T09:58:45.592Z,7.09
2019-05-06T10:03:53.309Z,7.48
2019-05-06T10:09:04.741Z,7.72
2019-05-06T10:14:08.212Z,8.63
2019-05-06T10:19:15.791Z,8.32
2019-05-06T10:24:23.433Z,8.73
2019-05-06T10:29:32.586Z,9.43
2019-05-06T10:34:38.181Z,9.76
2019-05-06T10:39:45.770Z,10.85
2019-05-06T10:44:53.451Z,15.28
2019-05-06T10:50:02.210Z,12.43
2019-05-06T10:55:08.234Z,11.93
2019-05-06T11:00:15.823Z,12.60
2019-05-06T11:05:23.501Z,13.28
2019-05-06T11:10:40.439Z,11.91
2019-05-06T11:15:38.443Z,12.57
2019-05-06T11:20:46.081Z,12.33
2019-05-06T11:25:53.877Z,15.38
2019-05-06T11:31:02.555Z,16.00
2019-05-06T11:36:08.793Z,15.27
2019-05-06T11:41:16.374Z,15.39
2019-05-06T11:46:24.018Z,15.07
2019-05-06T11:51:32.999Z,12.44
2019-05-06T11:56:48.709Z,12.00
2019-05-06T12:01:45.920Z,9.54
2019-05-06T12:07:09.290Z,9.67
2019-05-06T12:12:03.058Z,9.48
2019-05-06T12:17:07.944Z,8.79
2019-05-06T12:22:15.541Z,8.36
2019-05-06T12:27:23.355Z,8.79
2019-05-06T12:32:33.176Z,7.85
2019-05-06T12:37:38.235Z,8.09
2019-05-06T12:42:45.837Z,7.41
2019-05-06T12:47:53.569Z,7.53
2019-05-06T12:53:01.082Z,7.61
2019-05-06T12:58:08.740Z,7.92
2019-05-06T13:03:16.342Z,7.92
2019-05-06T13:08:32.447Z,8.17
2019-05-06T13:13:33.161Z,8.96
2019-05-06T13:18:38.271Z,8.85
2019-05-06T13:23:45.870Z,8.41
2019-05-06T13:28:53.563Z,8.59
2019-05-06T13:34:02.879Z,9.62
2019-05-06T13:39:14.356Z,9.87
2019-05-06T13:44:15.485Z,9.86
2019-05-06T13:49:23.153Z,9.37
2019-05-06T13:54:30.735Z,9.56
2019-05-06T13:59:38.391Z,9.90
2019-05-06T14:04:46.003Z,10.07
2019-05-06T14:09:53.826Z,10.04
2019-05-06T14:15:04.126Z,9.25
2019-05-06T14:20:08.681Z,9.97
2019-05-06T14:25:16.275Z,9.62
2019-05-06T14:30:23.931Z,9.88
2019-05-06T14:35:32.518Z,10.31
2019-05-06T14:40:38.718Z,10.14
2019-05-06T14:45:46.319Z,9.76
2019-05-06T14:50:57.188Z,9.58
2019-05-06T14:56:02.494Z,10.19
2019-05-06T15:01:08.343Z,10.10
2019-05-06T15:06:15.933Z,9.83
2019-05-06T15:11:23.587Z,9.92
2019-05-06T15:16:33.595Z,9.76
2019-05-06T15:21:39.089Z,10.73
2019-05-06T15:26:45.486Z,11.02
2019-05-06T15:31:53.165Z,11.64
2019-05-06T15:37:02.365Z,12.95
2019-05-06T15:42:07.952Z,12.77
2019-05-06T15:47:15.535Z,14.33
2019-05-06T15:52:23.655Z,14.26
2019-05-06T15:57:32.302Z,15.05
2019-05-06T16:02:37.541Z,15.25
2019-05-06T16:07:45.124Z,12.91
2019-05-06T16:12:53.516Z,13.68
2019-05-06T16:18:02.188Z,12.62
2019-05-06T16:23:07.085Z,10.36
2019-05-06T16:28:14.695Z,11.17
2019-05-06T16:33:22.388Z,10.34
2019-05-06T16:38:32.132Z,8.31
2019-05-06T16:43:37.149Z,7.08
2019-05-06T16:48:45.430Z,6.56
2019-05-06T16:53:52.609Z,6.54
2019-05-06T16:58:59.263Z,6.01
2019-05-06T17:04:08.298Z,5.49
2019-05-06T17:09:20.995Z,5.23
2019-05-06T17:14:21.272Z,5.62
2019-05-06T17:19:28.893Z,5.53
2019-05-06T17:24:36.676Z,4.88
2019-05-06T17:29:44.271Z,4.69
2019-05-06T17:34:52.696Z,4.61
2019-05-06T17:40:07.942Z,4.68
2019-05-06T17:45:06.266Z,4.80
2019-05-06T17:50:13.919Z,4.75
2019-05-06T17:55:22.503Z,4.59
2019-05-06T18:00:28.707Z,4.86
2019-05-06T18:05:36.360Z,5.20
2019-05-06T18:10:43.968Z,5.08
2019-05-06T18:15:53.021Z,5.27
2019-05-06T18:20:58.755Z,5.38
2019-05-06T18:26:06.434Z,6.67
2019-05-06T18:31:14.031Z,6.08
2019-05-06T18:36:22.658Z,6.92
2019-05-06T18:41:29.385Z,6.52
2019-05-06T18:46:36.117Z,7.13
2019-05-06T18:51:43.742Z,7.35
2019-05-06T18:56:52.224Z,7.65
2019-05-06T19:01:58.587Z,8.79
2019-05-06T19:07:13.334Z,7.74
2019-05-06T19:12:28.395Z,8.03
2019-05-06T19:17:22.511Z,8.14
2019-05-06T19:22:27.919Z,8.29
2019-05-06T19:27:35.632Z,8.68
2019-05-06T19:32:45.362Z,8.86
2019-05-06T19:37:50.429Z,8.88
2019-05-06T19:42:58.203Z,9.20
2019-05-06T19:48:06.000Z,10.12
2019-05-06T19:53:13.704Z,10.11
2019-05-06T19:58:21.386Z,10.16
2019-05-06T20:03:32.709Z,10.37
2019-05-06T20:08:29.225Z,10.38
2019-05-06T20:13:36.851Z,9.89
2019-05-06T20:18:44.536Z,10.37
2019-05-06T20:23:52.722Z,10.05
2019-05-06T20:28:59.397Z,10.55
2019-05-06T20:34:06.996Z,11.52
2019-05-06T20:39:14.659Z,10.71
2019-05-06T20:44:23.010Z,10.51
2019-05-06T20:49:29.451Z,10.09
2019-05-06T20:54:37.038Z,8.91
2019-05-06T20:59:44.704Z,10.05
2019-05-06T21:04:52.635Z,9.72
2019-05-06T21:10:02.249Z,8.48
2019-05-06T21:15:07.501Z,8.32
2019-05-06T21:20:15.173Z,8.21
2019-05-06T21:25:22.785Z,7.55
2019-05-06T21:30:32.362Z,8.23
2019-05-06T21:35:37.580Z,8.16
2019-05-06T21:40:45.268Z,8.06
2019-05-06T21:45:54.139Z,8.22
2019-05-06T21:51:00.081Z,7.58
2019-05-06T21:56:07.693Z,7.52
2019-05-06T22:01:15.331Z,7.58
2019-05-06T22:06:22.941Z,7.85
2019-05-06T22:11:32.308Z,8.00
2019-05-06T22:16:37.876Z,7.79
2019-05-06T22:21:45.531Z,8.09
2019-05-06T22:26:53.129Z,8.59
2019-05-06T22:32:02.732Z,8.48
2019-05-06T22:37:07.912Z,9.05
2019-05-06T22:42:15.549Z,9.10
2019-05-06T22:47:23.240Z,9.51
2019-05-06T22:52:32.522Z,9.44
2019-05-06T22:57:37.930Z,9.02
2019-05-06T23:02:45.584Z,8.93
2019-05-06T23:07:53.334Z,9.25
2019-05-06T23:13:02.963Z,10.40
2019-05-06T23:18:07.924Z,9.34
2019-05-06T23:23:15.556Z,8.99
2019-05-06T23:28:23.142Z,8.94
2019-05-06T23:33:32.317Z,9.17
2019-05-06T23:38:37.891Z,9.04
2019-05-06T23:43:45.573Z,10.16
2019-05-06T23:48:53.150Z,10.02
2019-05-06T23:54:03.057Z,9.38
2019-05-06T23:59:07.916Z,9.76
